createdAt,value
2023-11-15T00:00:26.653Z,8.33
2023-11-15T00:02:53.988Z,8.32
2023-11-15T00:05:21.784Z,8.31
2023-11-15T00:07:48.766Z,8.29
2023-11-15T00:10:15.841Z,8.28
2023-11-15T00:12:44.326Z,8.25
2023-11-15T00:15:11.352Z,8.21
2023-11-15T00:17:38.417Z,8.20
2023-11-15T00:20:06.310Z,8.15
2023-11-15T00:22:33.339Z,8.11
2023-11-15T00:25:00.584Z,8.07
2023-11-15T00:27:30.929Z,8.05
2023-11-15T00:29:57.980Z,8.05
2023-11-15T00:32:25.004Z,8.02
2023-11-15T00:34:51.970Z,7.98
2023-11-15T00:37:18.951Z,7.96
2023-11-15T00:39:45.898Z,7.95
2023-11-15T00:42:13.032Z,7.91
2023-11-15T00:44:40.297Z,7.87
2023-11-15T00:47:07.226Z,7.80
2023-11-15T00:49:34.480Z,7.78
2023-11-15T00:52:01.545Z,7.77
2023-11-15T00:54:28.695Z,7.76
2023-11-15T00:56:59.153Z,7.74
2023-11-15T00:59:37.776Z,7.72
2023-11-15T01:02:06.482Z,7.66
2023-11-15T01:04:34.019Z,7.65
2023-11-15T01:07:01.369Z,7.66
2023-11-15T01:09:28.982Z,7.63
2023-11-15T01:11:56.455Z,7.59
2023-11-15T01:14:23.713Z,7.57
2023-11-15T01:16:50.860Z,7.54
2023-11-15T01:19:17.855Z,7.51
2023-11-15T01:21:44.942Z,7.49
2023-11-15T01:24:12.020Z,7.45
2023-11-15T01:26:39.033Z,7.44
2023-11-15T01:29:06.022Z,7.38
2023-11-15T01:31:33.009Z,7.31
2023-11-15T01:34:00.150Z,7.26
2023-11-15T01:36:29.018Z,7.19
2023-11-15T01:38:56.226Z,7.19
2023-11-15T01:41:25.148Z,7.17
2023-11-15T01:43:52.378Z,7.14
2023-11-15T01:46:19.605Z,7.05
2023-11-15T01:48:48.400Z,7.03
2023-11-15T01:51:15.704Z,6.95
2023-11-15T01:53:43.237Z,6.91
2023-11-15T01:56:10.368Z,6.89
2023-11-15T01:58:37.656Z,6.92
2023-11-15T02:01:06.693Z,6.91
2023-11-15T02:03:34.092Z,6.91
2023-11-15T02:06:01.242Z,6.90
2023-11-15T02:08:28.788Z,6.88
2023-11-15T02:10:55.879Z,6.92
2023-11-15T02:13:26.339Z,6.95
2023-11-15T02:15:53.923Z,6.99
2023-11-15T02:18:23.280Z,7.01
2023-11-15T02:20:51.181Z,7.01
2023-11-15T02:23:23.939Z,6.96
2023-11-15T02:25:54.709Z,6.94
2023-11-15T02:28:22.049Z,6.83
2023-11-15T02:30:49.097Z,6.82
2023-11-15T02:33:16.446Z,6.78
2023-11-15T02:35:43.675Z,6.77
2023-11-15T02:38:11.144Z,6.74
2023-11-15T02:40:39.749Z,6.77
2023-11-15T02:43:11.653Z,6.75
2023-11-15T02:45:38.578Z,6.76
2023-11-15T02:48:06.015Z,6.76
2023-11-15T02:50:33.117Z,6.76
2023-11-15T02:53:00.451Z,6.70
2023-11-15T02:55:27.438Z,6.71
2023-11-15T02:57:54.344Z,6.64
2023-11-15T03:00:21.497Z,6.65
2023-11-15T03:02:50.598Z,6.64
2023-11-15T03:05:18.311Z,6.65
2023-11-15T03:07:45.705Z,6.44
2023-11-15T03:10:12.822Z,6.54
2023-11-15T03:12:39.840Z,6.59
2023-11-15T03:15:07.493Z,6.47
2023-11-15T03:17:34.802Z,6.40
2023-11-15T03:20:01.836Z,6.44
2023-11-15T03:22:28.696Z,6.49
2023-11-15T03:24:55.696Z,6.35
2023-11-15T03:27:22.634Z,6.47
2023-11-15T03:29:49.946Z,6.26
2023-11-15T03:32:17.001Z,6.29
2023-11-15T03:34:44.574Z,6.29
2023-11-15T03:37:12.086Z,6.35
2023-11-15T03:39:39.148Z,6.38
2023-11-15T03:42:06.856Z,6.38
2023-11-15T03:44:34.158Z,6.35
2023-11-15T03:47:01.023Z,6.41
2023-11-15T03:49:28.468Z,6.28
2023-11-15T03:51:55.504Z,6.29
2023-11-15T03:54:22.390Z,6.24
2023-11-15T03:56:49.544Z,6.19
2023-11-15T03:59:16.509Z,6.06
2023-11-15T04:01:52.396Z,6.13
2023-11-15T04:04:24.989Z,6.05
2023-11-15T04:06:52.605Z,6.02
2023-11-15T04:09:19.553Z,5.97
2023-11-15T04:11:46.434Z,5.91
2023-11-15T04:14:13.640Z,5.88
2023-11-15T04:16:40.546Z,5.96
2023-11-15T04:19:07.533Z,6.11
2023-11-15T04:21:34.375Z,6.00
2023-11-15T04:24:01.388Z,6.02
2023-11-15T04:26:28.360Z,6.16
2023-11-15T04:28:55.229Z,5.99
2023-11-15T04:31:23.793Z,5.93
2023-11-15T04:33:52.254Z,5.95
2023-11-15T04:36:21.118Z,5.93
2023-11-15T04:38:51.218Z,5.99
2023-11-15T04:41:18.259Z,6.06
2023-11-15T04:43:45.265Z,6.14
2023-11-15T04:46:12.532Z,6.00
2023-11-15T04:48:40.906Z,6.15
2023-11-15T04:51:07.933Z,6.19
2023-11-15T04:53:34.938Z,6.18
2023-11-15T04:56:03.563Z,6.07
2023-11-15T04:58:31.419Z,6.18
2023-11-15T05:00:58.624Z,6.21
2023-11-15T05:03:26.864Z,6.23
2023-11-15T05:05:54.147Z,6.24
2023-11-15T05:08:21.225Z,6.24
2023-11-15T05:10:48.242Z,6.17
2023-11-15T05:13:15.107Z,6.25
2023-11-15T05:15:42.280Z,6.11
2023-11-15T05:18:09.443Z,6.05
2023-11-15T05:20:36.978Z,5.80
2023-11-15T05:23:04.280Z,5.90
2023-11-15T05:25:31.433Z,5.82
2023-11-15T05:27:58.521Z,5.98
2023-11-15T05:30:25.379Z,6.02
2023-11-15T05:32:52.571Z,6.02
2023-11-15T05:35:19.475Z,6.12
2023-11-15T05:37:47.004Z,5.88
2023-11-15T05:40:14.395Z,6.01
2023-11-15T05:42:41.404Z,6.00
2023-11-15T05:45:11.174Z,6.09
2023-11-15T05:47:41.816Z,6.03
2023-11-15T05:50:12.749Z,6.02
2023-11-15T05:52:39.894Z,6.08
2023-11-15T05:55:08.041Z,6.12
2023-11-15T05:57:35.315Z,6.14
2023-11-15T06:00:06.691Z,6.13
2023-11-15T06:02:39.199Z,6.15
2023-11-15T06:05:07.039Z,6.20
2023-11-15T06:07:34.543Z,6.15
2023-11-15T06:10:01.560Z,6.02
2023-11-15T06:12:29.817Z,6.04
2023-11-15T06:14:56.687Z,6.04
2023-11-15T06:17:26.576Z,5.90
2023-11-15T06:19:58.534Z,5.95
2023-11-15T06:22:31.896Z,5.93
2023-11-15T06:24:58.861Z,5.97
2023-11-15T06:27:25.710Z,6.01
2023-11-15T06:29:53.336Z,6.01
2023-11-15T06:32:20.314Z,6.06
2023-11-15T06:34:47.888Z,6.06
2023-11-15T06:37:15.067Z,6.02
2023-11-15T06:39:45.277Z,6.00
2023-11-15T06:42:13.754Z,5.93
2023-11-15T06:44:41.398Z,5.86
2023-11-15T06:47:10.234Z,5.91
2023-11-15T06:49:37.822Z,5.88
2023-11-15T06:52:07.110Z,5.80
2023-11-15T06:54:34.303Z,5.79
2023-11-15T06:57:01.397Z,5.66
2023-11-15T06:59:28.676Z,5.61
2023-11-15T07:01:56.292Z,5.75
2023-11-15T07:04:23.679Z,5.79
2023-11-15T07:06:50.678Z,5.89
2023-11-15T07:09:19.173Z,5.86
2023-11-15T07:11:48.157Z,5.90
2023-11-15T07:14:19.254Z,5.91
2023-11-15T07:16:53.821Z,5.76
2023-11-15T07:19:20.820Z,5.77
2023-11-15T07:21:47.719Z,5.82
2023-11-15T07:24:14.899Z,5.64
2023-11-15T07:26:42.843Z,5.69
2023-11-15T07:29:09.714Z,5.46
2023-11-15T07:31:37.100Z,5.60
2023-11-15T07:36:59.512Z,5.63
2023-11-15T07:39:27.306Z,5.49
2023-11-15T07:42:01.870Z,5.42
2023-11-15T07:44:31.676Z,5.54
2023-11-15T07:47:00.544Z,5.53
2023-11-15T07:49:30.035Z,5.52
2023-11-15T07:51:57.165Z,5.54
2023-11-15T07:54:24.593Z,5.67
2023-11-15T07:56:51.728Z,5.73
2023-11-15T07:59:22.733Z,5.63
2023-11-15T08:01:50.144Z,5.61
2023-11-15T08:04:17.596Z,5.79
2023-11-15T08:06:44.962Z,5.83
2023-11-15T08:09:26.210Z,5.66
2023-11-15T08:11:56.047Z,5.79
2023-11-15T08:14:23.155Z,5.86
2023-11-15T08:16:50.494Z,5.76
2023-11-15T08:19:18.370Z,5.72
2023-11-15T08:21:45.736Z,5.72
2023-11-15T08:24:19.193Z,5.78
2023-11-15T08:26:46.232Z,5.71
2023-11-15T08:29:13.145Z,5.78
2023-11-15T08:31:40.227Z,5.71
2023-11-15T08:34:07.316Z,5.74
2023-11-15T08:36:34.328Z,5.76
2023-11-15T08:39:01.757Z,5.61
2023-11-15T08:41:28.834Z,5.65
2023-11-15T08:43:55.864Z,5.67
2023-11-15T08:46:27.669Z,5.69
2023-11-15T08:48:54.847Z,5.77
2023-11-15T08:51:22.291Z,5.76
2023-11-15T08:53:49.218Z,5.73
2023-11-15T08:56:16.379Z,5.73
2023-11-15T08:58:44.064Z,5.71
2023-11-15T09:01:11.450Z,5.75
2023-11-15T09:03:42.438Z,5.72
2023-11-15T09:06:13.008Z,5.64
2023-11-15T09:08:39.970Z,5.65
2023-11-15T09:11:07.177Z,5.56
2023-11-15T09:13:34.465Z,5.53
2023-11-15T09:16:02.961Z,5.59
2023-11-15T09:18:30.739Z,5.53
2023-11-15T09:20:59.614Z,5.58
2023-11-15T09:23:30.663Z,5.57
2023-11-15T09:26:01.458Z,5.55
2023-11-15T09:28:28.711Z,5.58
2023-11-15T09:30:56.158Z,5.57
2023-11-15T09:33:23.212Z,5.59
2023-11-15T09:35:55.264Z,5.60
2023-11-15T09:38:28.580Z,5.57
2023-11-15T09:40:55.438Z,5.57
2023-11-15T09:43:22.609Z,5.62
2023-11-15T09:45:49.762Z,5.64
2023-11-15T09:48:17.085Z,5.67
2023-11-15T09:50:50.173Z,5.67
2023-11-15T09:53:19.914Z,5.76
2023-11-15T09:55:48.720Z,5.84
2023-11-15T09:58:15.785Z,5.86
2023-11-15T10:00:42.870Z,5.95
2023-11-15T10:03:10.154Z,5.97
2023-11-15T10:05:40.824Z,5.97
2023-11-15T10:08:16.728Z,5.93
2023-11-15T10:10:46.191Z,5.91
2023-11-15T10:13:18.143Z,5.90
2023-11-15T10:15:46.785Z,5.84
2023-11-15T10:18:29.777Z,5.81
2023-11-15T10:21:19.154Z,5.74
2023-11-15T10:23:47.500Z,5.79
2023-11-15T10:26:14.471Z,5.79
2023-11-15T10:28:41.521Z,5.81
2023-11-15T10:31:14.918Z,5.85
2023-11-15T10:33:47.353Z,5.82
2023-11-15T10:36:17.786Z,5.81
2023-11-15T10:38:47.316Z,5.81
2023-11-15T10:41:20.566Z,5.81
2023-11-15T10:43:51.989Z,5.82
2023-11-15T10:46:25.991Z,5.78
2023-11-15T10:48:54.002Z,5.78
2023-11-15T10:51:22.480Z,5.80
2023-11-15T10:53:50.020Z,5.84
2023-11-15T10:56:18.665Z,5.80
2023-11-15T10:58:49.055Z,5.82
2023-11-15T11:01:19.680Z,5.79
2023-11-15T11:03:50.719Z,5.80
2023-11-15T11:06:26.630Z,5.81
2023-11-15T11:09:11.373Z,5.85
2023-11-15T11:11:43.836Z,5.87
2023-11-15T11:14:19.871Z,5.87
2023-11-15T11:16:47.466Z,5.92
2023-11-15T11:19:20.873Z,5.94
2023-11-15T11:22:09.519Z,6.00
2023-11-15T11:24:47.214Z,6.00
2023-11-15T11:27:31.045Z,6.03
2023-11-15T11:30:17.207Z,6.09
2023-11-15T11:32:48.418Z,6.10
2023-11-15T11:35:32.145Z,6.11
2023-11-15T11:38:01.245Z,6.16
2023-11-15T11:40:33.515Z,6.17
2023-11-15T11:43:18.184Z,6.13
2023-11-15T11:45:46.464Z,6.16
2023-11-15T11:48:18.372Z,6.14
2023-11-15T11:50:57.179Z,6.10
2023-11-15T11:53:24.169Z,6.13
2023-11-15T11:55:55.795Z,6.15
2023-11-15T11:58:24.318Z,6.17
2023-11-15T12:00:51.502Z,6.15
2023-11-15T12:03:19.133Z,6.13
2023-11-15T12:05:46.280Z,6.11
2023-11-15T12:08:15.727Z,6.12
2023-11-15T12:10:44.307Z,6.14
2023-11-15T12:13:12.248Z,6.19
2023-11-15T12:15:40.291Z,6.21
2023-11-15T12:18:08.441Z,6.24
2023-11-15T12:20:40.845Z,6.24
2023-11-15T12:23:16.276Z,6.27
2023-11-15T12:25:53.203Z,6.32
2023-11-15T12:28:27.777Z,6.31
2023-11-15T12:30:56.279Z,6.23
2023-11-15T12:33:24.729Z,6.13
2023-11-15T12:35:53.892Z,6.07
2023-11-15T12:38:21.188Z,6.01
2023-11-15T12:40:48.910Z,5.95
2023-11-15T12:43:22.712Z,5.90
2023-11-15T12:45:51.700Z,5.90
2023-11-15T12:48:19.166Z,5.90
2023-11-15T12:50:47.335Z,5.86
2023-11-15T12:53:16.279Z,5.83
2023-11-15T12:55:56.836Z,5.76
2023-11-15T12:58:45.302Z,5.78
2023-11-15T13:01:18.553Z,5.80
2023-11-15T13:03:46.681Z,5.78
2023-11-15T13:06:19.651Z,5.75
2023-11-15T13:08:51.762Z,5.75
2023-11-15T13:11:27.868Z,5.74
2023-11-15T13:13:55.329Z,5.78
2023-11-15T13:16:23.557Z,5.79
2023-11-15T13:18:51.260Z,5.79
2023-11-15T13:21:22.856Z,5.81
2023-11-15T13:23:54.202Z,5.83
2023-11-15T13:26:21.926Z,5.83
2023-11-15T13:28:50.278Z,5.78
2023-11-15T13:31:24.940Z,5.77
2023-11-15T13:33:54.426Z,5.75
2023-11-15T13:36:23.057Z,5.70
2023-11-15T13:38:50.479Z,5.68
2023-11-15T13:41:23.095Z,5.69
2023-11-15T13:43:51.494Z,5.70
2023-11-15T13:46:24.644Z,5.68
2023-11-15T13:48:54.282Z,5.66
2023-11-15T13:51:22.730Z,5.65
2023-11-15T13:53:50.335Z,5.64
2023-11-15T13:56:17.180Z,5.68
2023-11-15T13:58:44.098Z,5.71
2023-11-15T14:01:12.584Z,5.74
2023-11-15T14:03:39.958Z,5.76
2023-11-15T14:06:08.404Z,5.74
2023-11-15T14:08:47.565Z,5.67
2023-11-15T14:11:23.781Z,5.62
2023-11-15T14:13:56.612Z,5.45
2023-11-15T14:16:24.399Z,5.42
2023-11-15T14:18:51.700Z,5.36
2023-11-15T14:21:19.472Z,5.32
2023-11-15T14:23:47.528Z,5.27
2023-11-15T14:26:15.802Z,5.22
2023-11-15T14:28:44.836Z,5.22
2023-11-15T14:31:12.413Z,5.21
2023-11-15T14:33:40.140Z,5.19
2023-11-15T14:36:08.235Z,5.13
2023-11-15T14:38:35.205Z,5.03
2023-11-15T14:41:03.072Z,4.97
2023-11-15T14:43:30.010Z,4.96
2023-11-15T14:45:59.396Z,4.91
2023-11-15T14:48:26.429Z,4.91
2023-11-15T14:50:53.372Z,4.86
2023-11-15T14:53:31.432Z,4.82
2023-11-15T14:55:59.756Z,4.80
2023-11-15T14:58:27.519Z,4.74
2023-11-15T15:00:55.025Z,4.70
2023-11-15T15:03:23.939Z,4.68
2023-11-15T15:05:52.785Z,4.65
2023-11-15T15:08:23.029Z,4.65
2023-11-15T15:10:54.577Z,4.65
2023-11-15T15:13:22.369Z,4.68
2023-11-15T15:15:49.372Z,4.65
2023-11-15T15:18:19.662Z,4.62
2023-11-15T15:20:52.341Z,4.58
2023-11-15T15:23:19.604Z,4.55
2023-11-15T15:25:47.824Z,4.49
2023-11-15T15:28:15.872Z,4.45
2023-11-15T15:30:44.221Z,4.43
2023-11-15T15:33:14.090Z,4.41
2023-11-15T15:35:41.547Z,4.40
2023-11-15T15:38:10.488Z,4.38
2023-11-15T15:40:39.945Z,4.43
2023-11-15T15:43:07.218Z,4.46
2023-11-15T15:45:36.658Z,4.52
2023-11-15T15:48:05.805Z,4.57
2023-11-15T15:50:33.111Z,4.57
2023-11-15T15:53:00.136Z,4.52
2023-11-15T15:55:27.495Z,4.49
2023-11-15T15:57:57.532Z,4.46
2023-11-15T16:00:25.470Z,4.41
2023-11-15T16:02:54.294Z,4.34
2023-11-15T16:05:21.636Z,4.31
2023-11-15T16:07:48.633Z,4.27
2023-11-15T16:10:15.569Z,4.23
2023-11-15T16:12:42.458Z,4.19
2023-11-15T16:15:17.333Z,4.15
2023-11-15T16:17:44.626Z,4.10
2023-11-15T16:20:13.122Z,4.10
2023-11-15T16:22:40.107Z,4.11
2023-11-15T16:25:07.612Z,4.14
2023-11-15T16:27:37.519Z,4.19
2023-11-15T16:30:06.701Z,4.23
2023-11-15T16:32:36.412Z,4.29
2023-11-15T16:35:05.346Z,4.33
2023-11-15T16:37:36.157Z,4.37
2023-11-15T16:40:09.314Z,4.43
2023-11-15T16:42:36.658Z,4.47
2023-11-15T16:45:08.011Z,4.51
2023-11-15T16:47:37.192Z,4.55
2023-11-15T16:50:05.269Z,4.58
2023-11-15T16:52:34.442Z,4.62
2023-11-15T16:55:02.697Z,4.64
2023-11-15T16:57:29.677Z,4.62
2023-11-15T16:59:58.569Z,4.57
2023-11-15T17:02:25.799Z,4.54
2023-11-15T17:04:53.172Z,4.49
2023-11-15T17:07:22.453Z,4.43
2023-11-15T17:09:52.548Z,4.36
2023-11-15T17:12:20.424Z,4.31
2023-11-15T17:14:47.610Z,4.31
2023-11-15T17:17:16.947Z,4.32
2023-11-15T17:19:45.735Z,4.32
2023-11-15T17:22:14.627Z,4.33
2023-11-15T17:24:41.643Z,4.31
2023-11-15T17:27:09.786Z,4.29
2023-11-15T17:29:37.195Z,4.26
2023-11-15T17:32:04.742Z,4.22
2023-11-15T17:34:32.657Z,4.19
2023-11-15T17:36:59.648Z,4.18
2023-11-15T17:39:26.787Z,4.18
2023-11-15T17:51:06.921Z,3.93
2023-11-15T17:53:34.043Z,3.87
2023-11-15T17:56:01.642Z,3.83
2023-11-15T17:58:28.461Z,3.81
2023-11-15T18:00:55.806Z,3.84
2023-11-15T18:03:23.064Z,3.92
2023-11-15T18:05:50.069Z,3.98
2023-11-15T18:08:20.021Z,4.01
2023-11-15T18:10:47.067Z,4.06
2023-11-15T18:13:14.008Z,4.13
2023-11-15T18:15:40.950Z,4.17
2023-11-15T18:18:08.033Z,4.18
2023-11-15T18:20:35.095Z,4.14
2023-11-15T18:23:02.521Z,4.05
2023-11-15T18:25:29.397Z,3.95
2023-11-15T18:27:56.431Z,3.86
2023-11-15T18:30:24.607Z,3.80
2023-11-15T18:32:56.277Z,3.74
2023-11-15T18:35:23.410Z,3.64
2023-11-15T18:37:58.424Z,3.53
2023-11-15T18:40:26.564Z,3.45
2023-11-15T18:42:56.155Z,3.34
2023-11-15T18:45:28.486Z,3.23
2023-11-15T18:48:01.142Z,3.17
2023-11-15T18:50:33.147Z,3.10
2023-11-15T18:53:04.761Z,3.02
2023-11-15T18:55:34.847Z,2.94
2023-11-15T18:58:02.376Z,2.92
2023-11-15T19:00:31.722Z,2.90
2023-11-15T19:03:07.273Z,2.87
2023-11-15T19:05:35.337Z,2.81
2023-11-15T19:08:03.825Z,2.77
2023-11-15T19:10:34.137Z,2.72
2023-11-15T19:13:03.088Z,2.70
2023-11-15T19:15:31.100Z,2.67
2023-11-15T19:17:58.825Z,2.67
2023-11-15T19:20:29.912Z,2.70
2023-11-15T19:22:57.076Z,2.68
2023-11-15T19:25:25.868Z,2.72
2023-11-15T19:27:53.190Z,2.75
2023-11-15T19:30:21.151Z,2.74
2023-11-15T19:32:51.517Z,2.74
2023-11-15T19:35:20.816Z,2.75
2023-11-15T19:37:48.276Z,2.78
2023-11-15T19:40:16.402Z,2.77
2023-11-15T19:42:43.928Z,2.73
2023-11-15T19:45:12.674Z,2.72
2023-11-15T19:47:40.944Z,2.65
2023-11-15T19:50:09.077Z,2.60
2023-11-15T19:52:35.963Z,2.60
2023-11-15T19:55:12.692Z,2.56
2023-11-15T19:57:40.455Z,2.61
2023-11-15T20:00:14.164Z,2.63
2023-11-15T20:02:46.762Z,2.64
2023-11-15T20:05:16.415Z,2.67
2023-11-15T20:07:44.516Z,2.66
2023-11-15T20:10:12.171Z,2.65
2023-11-15T20:12:40.843Z,2.65
2023-11-15T20:15:11.362Z,2.64
2023-11-15T20:17:39.385Z,2.64
2023-11-15T20:20:08.828Z,2.69
2023-11-15T20:22:44.821Z,2.71
2023-11-15T20:25:16.914Z,2.66
2023-11-15T20:27:45.423Z,2.60
2023-11-15T20:30:12.853Z,2.58
2023-11-15T20:32:40.746Z,2.61
2023-11-15T20:35:09.039Z,2.59
2023-11-15T20:37:37.207Z,2.58
2023-11-15T20:40:07.567Z,2.58
2023-11-15T20:42:36.374Z,2.61
2023-11-15T20:45:04.108Z,2.60
2023-11-15T20:47:33.714Z,2.60
2023-11-15T20:50:05.428Z,2.60
2023-11-15T20:52:34.053Z,2.55
2023-11-15T20:55:03.840Z,2.45
2023-11-15T20:57:31.247Z,2.35
2023-11-15T21:00:00.061Z,2.28
2023-11-15T21:02:27.312Z,2.24
2023-11-15T21:04:56.912Z,2.17
2023-11-15T21:07:24.416Z,2.10
2023-11-15T21:09:53.904Z,2.05
2023-11-15T21:12:22.155Z,1.98
2023-11-15T21:14:54.422Z,1.90
2023-11-15T21:17:21.418Z,1.66
2023-11-15T21:19:48.636Z,1.40
2023-11-15T21:22:15.588Z,1.39
2023-11-15T21:24:43.536Z,1.45
2023-11-15T21:27:12.854Z,1.57
2023-11-15T21:29:39.722Z,1.68
2023-11-15T21:32:11.212Z,1.77
2023-11-15T21:34:38.347Z,1.84
2023-11-15T21:37:13.423Z,1.90
2023-11-15T21:39:45.238Z,1.98
2023-11-15T21:42:55.386Z,2.06
2023-11-15T21:45:22.520Z,2.14
2023-11-15T21:47:50.288Z,2.15
2023-11-15T21:50:22.616Z,2.14
2023-11-15T21:52:49.860Z,2.14
2023-11-15T21:55:16.820Z,2.11
2023-11-15T21:57:44.249Z,2.00
2023-11-15T22:00:15.986Z,1.63
2023-11-15T22:02:44.150Z,1.34
2023-11-15T22:05:11.659Z,1.27
2023-11-15T22:07:39.267Z,1.34
2023-11-15T22:10:10.494Z,1.41
2023-11-15T22:12:37.867Z,1.28
2023-11-15T22:15:05.104Z,1.19
2023-11-15T22:17:32.216Z,1.26
2023-11-15T22:19:59.602Z,1.33
2023-11-15T22:22:26.530Z,1.34
2023-11-15T22:24:53.724Z,1.30
2023-11-15T22:27:20.847Z,1.29
2023-11-15T22:29:47.846Z,1.24
2023-11-15T22:32:14.856Z,1.20
2023-11-15T22:34:41.938Z,1.20
2023-11-15T22:37:10.010Z,1.14
2023-11-15T22:39:37.118Z,1.10
2023-11-15T22:42:04.542Z,1.03
2023-11-15T22:44:31.633Z,0.98
2023-11-15T22:46:58.607Z,0.93
2023-11-15T22:49:25.553Z,0.87
2023-11-15T22:51:52.605Z,0.78
2023-11-15T22:54:19.676Z,0.71
2023-11-15T22:56:47.104Z,0.66
2023-11-15T22:59:14.235Z,0.64
2023-11-15T23:01:41.222Z,0.66
2023-11-15T23:04:09.267Z,0.68
2023-11-15T23:06:36.428Z,0.70
2023-11-15T23:09:03.459Z,0.73
2023-11-15T23:11:31.685Z,0.75
2023-11-15T23:13:58.537Z,0.75
2023-11-15T23:16:25.873Z,0.76
2023-11-15T23:18:54.701Z,0.78
2023-11-15T23:21:23.169Z,0.76
2023-11-15T23:23:50.184Z,0.76
2023-11-15T23:26:17.222Z,0.76
2023-11-15T23:28:44.354Z,0.74
2023-11-15T23:31:12.404Z,0.73
2023-11-15T23:33:39.374Z,0.71
2023-11-15T23:36:07.374Z,0.72
2023-11-15T23:38:34.301Z,0.67
2023-11-15T23:41:02.026Z,0.65
2023-11-15T23:43:29.824Z,0.61
2023-11-15T23:45:58.630Z,0.56
2023-11-15T23:48:25.793Z,0.50
2023-11-15T23:50:54.567Z,0.45
2023-11-15T23:53:22.818Z,0.41
2023-11-15T23:55:51.102Z,0.37
2023-11-15T23:58:17.961Z,0.32
